sensor_id;sensor_type;location;lat;lon;timestamp;temperature;humidity
58339;DHT22;48278;52.704;6.536;2023-03-02T00:00:37;2.70;99.90
58339;DHT22;48278;52.704;6.536;2023-03-02T00:03:04;2.60;99.90
58339;DHT22;48278;52.704;6.536;2023-03-02T00:05:30;2.70;99.90
58339;DHT22;48278;52.704;6.536;2023-03-02T00:07:57;2.70;99.90
58339;DHT22;48278;52.704;6.536;2023-03-02T00:10:24;2.70;99.90
58339;DHT22;48278;52.704;6.536;2023-03-02T00:12:50;2.70;99.90
58339;DHT22;48278;52.704;6.536;2023-03-02T00:15:16;2.70;99.90
58339;DHT22;48278;52.704;6.536;2023-03-02T00:17:42;2.70;99.90
58339;DHT22;48278;52.704;6.536;2023-03-02T00:20:08;2.70;99.90
58339;DHT22;48278;52.704;6.536;2023-03-02T00:22:38;2.60;99.90
58339;DHT22;48278;52.704;6.536;2023-03-02T00:25:05;2.70;99.90
58339;DHT22;48278;52.704;6.536;2023-03-02T00:27:31;2.70;99.90
58339;DHT22;48278;52.704;6.536;2023-03-02T00:29:57;2.70;99.90
58339;DHT22;48278;52.704;6.536;2023-03-02T00:32:23;2.60;99.90
58339;DHT22;48278;52.704;6.536;2023-03-02T00:34:49;2.70;99.90
58339;DHT22;48278;52.704;6.536;2023-03-02T00:37:15;2.60;99.90
58339;DHT22;48278;52.704;6.536;2023-03-02T00:39:41;2.70;99.90
58339;DHT22;48278;52.704;6.536;2023-03-02T00:42:06;2.70;99.90
58339;DHT22;48278;52.704;6.536;2023-03-02T00:44:32;2.70;99.90
58339;DHT22;48278;52.704;6.536;2023-03-02T00:46:58;2.60;99.90
58339;DHT22;48278;52.704;6.536;2023-03-02T00:49:24;2.70;99.90
58339;DHT22;48278;52.704;6.536;2023-03-02T00:51:50;2.70;99.90
58339;DHT22;48278;52.704;6.536;2023-03-02T00:54:15;2.70;99.90
58339;DHT22;48278;52.704;6.536;2023-03-02T00:56:41;2.70;99.90
58339;DHT22;48278;52.704;6.536;2023-03-02T00:59:09;2.70;99.90
58339;DHT22;48278;52.704;6.536;2023-03-02T01:01:56;2.70;99.90
58339;DHT22;48278;52.704;6.536;2023-03-02T01:04:27;2.60;99.90
58339;DHT22;48278;52.704;6.536;2023-03-02T01:07:01;2.70;99.90
58339;DHT22;48278;52.704;6.536;2023-03-02T01:09:28;2.70;99.90
58339;DHT22;48278;52.704;6.536;2023-03-02T01:11:54;2.60;99.90
58339;DHT22;48278;52.704;6.536;2023-03-02T01:14:22;2.60;99.90
58339;DHT22;48278;52.704;6.536;2023-03-02T01:16:48;2.70;99.90
58339;DHT22;48278;52.704;6.536;2023-03-02T01:19:15;2.70;99.90
58339;DHT22;48278;52.704;6.536;2023-03-02T01:21:41;2.70;99.90
58339;DHT22;48278;52.704;6.536;2023-03-02T01:24:08;2.80;99.90
58339;DHT22;48278;52.704;6.536;2023-03-02T01:26:35;2.70;99.90
58339;DHT22;48278;52.704;6.536;2023-03-02T01:29:01;2.70;99.90
58339;DHT22;48278;52.704;6.536;2023-03-02T01:31:27;2.80;99.90
58339;DHT22;48278;52.704;6.536;2023-03-02T01:33:53;2.80;99.90
58339;DHT22;48278;52.704;6.536;2023-03-02T01:36:20;2.80;99.90
58339;DHT22;48278;52.704;6.536;2023-03-02T01:38:45;2.80;99.90
58339;DHT22;48278;52.704;6.536;2023-03-02T01:41:11;2.70;99.90
58339;DHT22;48278;52.704;6.536;2023-03-02T01:43:37;2.60;99.90
58339;DHT22;48278;52.704;6.536;2023-03-02T01:46:13;2.60;99.90
58339;DHT22;48278;52.704;6.536;2023-03-02T01:51:20;2.50;99.90
58339;DHT22;48278;52.704;6.536;2023-03-02T01:53:53;2.60;99.90
58339;DHT22;48278;52.704;6.536;2023-03-02T01:56:25;2.60;99.90
58339;DHT22;48278;52.704;6.536;2023-03-02T01:58:55;2.60;99.90
58339;DHT22;48278;52.704;6.536;2023-03-02T02:01:28;2.60;99.90
58339;DHT22;48278;52.704;6.536;2023-03-02T02:03:54;2.60;99.90
58339;DHT22;48278;52.704;6.536;2023-03-02T02:06:30;2.40;99.90
58339;DHT22;48278;52.704;6.536;2023-03-02T02:08:57;2.40;99.90
58339;DHT22;48278;52.704;6.536;2023-03-02T02:11:24;2.40;99.90
58339;DHT22;48278;52.704;6.536;2023-03-02T02:13:55;2.50;99.90
58339;DHT22;48278;52.704;6.536;2023-03-02T02:16:22;2.50;99.90
58339;DHT22;48278;52.704;6.536;2023-03-02T02:18:48;2.50;99.90
58339;DHT22;48278;52.704;6.536;2023-03-02T02:21:14;2.50;99.90
58339;DHT22;48278;52.704;6.536;2023-03-02T02:26:36;2.50;99.90
58339;DHT22;48278;52.704;6.536;2023-03-02T02:29:05;2.50;99.90
58339;DHT22;48278;52.704;6.536;2023-03-02T02:31:47;2.50;99.90
58339;DHT22;48278;52.704;6.536;2023-03-02T02:34:18;2.40;99.90
58339;DHT22;48278;52.704;6.536;2023-03-02T02:36:48;2.40;99.90
58339;DHT22;48278;52.704;6.536;2023-03-02T02:39:20;2.30;99.90
58339;DHT22;48278;52.704;6.536;2023-03-02T02:41:48;2.30;99.90
58339;DHT22;48278;52.704;6.536;2023-03-02T02:44:16;2.30;99.90
58339;DHT22;48278;52.704;6.536;2023-03-02T02:46:43;2.30;99.90
58339;DHT22;48278;52.704;6.536;2023-03-02T02:49:31;2.20;99.90
58339;DHT22;48278;52.704;6.536;2023-03-02T02:51:58;2.20;99.90
58339;DHT22;48278;52.704;6.536;2023-03-02T02:54:25;2.20;99.90
58339;DHT22;48278;52.704;6.536;2023-03-02T02:56:53;2.10;99.90
58339;DHT22;48278;52.704;6.536;2023-03-02T02:59:27;2.20;99.90
58339;DHT22;48278;52.704;6.536;2023-03-02T03:01:55;2.10;99.90
58339;DHT22;48278;52.704;6.536;2023-03-02T03:04:24;2.10;99.90
58339;DHT22;48278;52.704;6.536;2023-03-02T03:06:57;2.10;99.90
58339;DHT22;48278;52.704;6.536;2023-03-02T03:09:23;2.00;99.90
58339;DHT22;48278;52.704;6.536;2023-03-02T03:11:52;2.00;99.90
58339;DHT22;48278;52.704;6.536;2023-03-02T03:14:32;2.00;99.90
58339;DHT22;48278;52.704;6.536;2023-03-02T03:16:59;2.00;99.90
58339;DHT22;48278;52.704;6.536;2023-03-02T03:19:27;1.90;99.90
58339;DHT22;48278;52.704;6.536;2023-03-02T03:21:55;1.90;99.90
58339;DHT22;48278;52.704;6.536;2023-03-02T03:24:23;2.00;99.90
58339;DHT22;48278;52.704;6.536;2023-03-02T03:26:49;2.00;99.90
58339;DHT22;48278;52.704;6.536;2023-03-02T03:29:16;2.00;99.90
58339;DHT22;48278;52.704;6.536;2023-03-02T03:31:42;2.00;99.90
58339;DHT22;48278;52.704;6.536;2023-03-02T03:34:08;2.00;99.90
58339;DHT22;48278;52.704;6.536;2023-03-02T03:36:34;1.90;99.90
58339;DHT22;48278;52.704;6.536;2023-03-02T03:39:01;2.00;99.90
58339;DHT22;48278;52.704;6.536;2023-03-02T03:41:27;2.00;99.90
58339;DHT22;48278;52.704;6.536;2023-03-02T03:43:53;2.00;99.90
58339;DHT22;48278;52.704;6.536;2023-03-02T03:46:18;1.90;99.90
58339;DHT22;48278;52.704;6.536;2023-03-02T03:48:44;1.90;99.90
58339;DHT22;48278;52.704;6.536;2023-03-02T03:51:10;1.90;99.90
58339;DHT22;48278;52.704;6.536;2023-03-02T03:53:36;2.00;99.90
58339;DHT22;48278;52.704;6.536;2023-03-02T03:56:03;1.90;99.90
58339;DHT22;48278;52.704;6.536;2023-03-02T03:58:29;1.90;99.90
58339;DHT22;48278;52.704;6.536;2023-03-02T04:00:55;1.90;99.90
58339;DHT22;48278;52.704;6.536;2023-03-02T04:03:21;1.70;99.90
58339;DHT22;48278;52.704;6.536;2023-03-02T04:05:48;1.80;99.90
58339;DHT22;48278;52.704;6.536;2023-03-02T04:08:13;1.80;99.90
58339;DHT22;48278;52.704;6.536;2023-03-02T04:10:39;1.70;99.90
58339;DHT22;48278;52.704;6.536;2023-03-02T04:13:05;1.70;99.90
58339;DHT22;48278;52.704;6.536;2023-03-02T04:15:31;1.70;99.90
58339;DHT22;48278;52.704;6.536;2023-03-02T04:17:57;1.70;99.90
58339;DHT22;48278;52.704;6.536;2023-03-02T04:20:23;1.70;99.90
58339;DHT22;48278;52.704;6.536;2023-03-02T04:22:51;1.80;99.90
58339;DHT22;48278;52.704;6.536;2023-03-02T04:25:20;1.80;99.90
58339;DHT22;48278;52.704;6.536;2023-03-02T04:27:48;1.80;99.90
58339;DHT22;48278;52.704;6.536;2023-03-02T04:30:16;1.80;99.90
58339;DHT22;48278;52.704;6.536;2023-03-02T04:32:42;1.80;99.90
58339;DHT22;48278;52.704;6.536;2023-03-02T04:35:12;1.80;99.90
58339;DHT22;48278;52.704;6.536;2023-03-02T04:37:38;1.90;99.90
58339;DHT22;48278;52.704;6.536;2023-03-02T04:40:05;1.80;99.90
58339;DHT22;48278;52.704;6.536;2023-03-02T04:42:31;1.80;99.90
58339;DHT22;48278;52.704;6.536;2023-03-02T04:44:57;1.80;99.90
58339;DHT22;48278;52.704;6.536;2023-03-02T04:47:22;1.80;99.90
58339;DHT22;48278;52.704;6.536;2023-03-02T04:49:48;1.70;99.90
58339;DHT22;48278;52.704;6.536;2023-03-02T04:52:19;1.70;99.90
58339;DHT22;48278;52.704;6.536;2023-03-02T04:54:46;1.80;99.90
58339;DHT22;48278;52.704;6.536;2023-03-02T04:57:12;1.70;99.90
58339;DHT22;48278;52.704;6.536;2023-03-02T04:59:38;1.80;99.90
58339;DHT22;48278;52.704;6.536;2023-03-02T05:02:04;1.80;99.90
58339;DHT22;48278;52.704;6.536;2023-03-02T05:04:29;1.80;99.90
58339;DHT22;48278;52.704;6.536;2023-03-02T05:06:56;1.80;99.90
58339;DHT22;48278;52.704;6.536;2023-03-02T05:09:23;1.80;99.90
58339;DHT22;48278;52.704;6.536;2023-03-02T05:11:56;1.80;99.90
58339;DHT22;48278;52.704;6.536;2023-03-02T05:14:23;1.70;99.90
58339;DHT22;48278;52.704;6.536;2023-03-02T05:16:49;1.70;99.90
58339;DHT22;48278;52.704;6.536;2023-03-02T05:19:15;1.60;99.90
58339;DHT22;48278;52.704;6.536;2023-03-02T05:21:42;1.70;99.90
58339;DHT22;48278;52.704;6.536;2023-03-02T05:24:08;1.60;99.90
58339;DHT22;48278;52.704;6.536;2023-03-02T05:26:34;1.70;99.90
58339;DHT22;48278;52.704;6.536;2023-03-02T05:29:00;1.60;99.90
58339;DHT22;48278;52.704;6.536;2023-03-02T05:33:52;1.70;99.90
58339;DHT22;48278;52.704;6.536;2023-03-02T05:36:17;1.70;99.90
58339;DHT22;48278;52.704;6.536;2023-03-02T05:38:43;1.60;99.90
58339;DHT22;48278;52.704;6.536;2023-03-02T05:41:09;1.60;99.90
58339;DHT22;48278;52.704;6.536;2023-03-02T05:43:34;1.60;99.90
58339;DHT22;48278;52.704;6.536;2023-03-02T05:46:01;1.60;99.90
58339;DHT22;48278;52.704;6.536;2023-03-02T05:48:28;1.60;99.90
58339;DHT22;48278;52.704;6.536;2023-03-02T05:50:55;1.60;99.90
58339;DHT22;48278;52.704;6.536;2023-03-02T05:53:20;1.50;99.90
58339;DHT22;48278;52.704;6.536;2023-03-02T05:55:47;1.50;99.90
58339;DHT22;48278;52.704;6.536;2023-03-02T05:58:15;1.50;99.90
58339;DHT22;48278;52.704;6.536;2023-03-02T06:00:43;1.40;99.90
58339;DHT22;48278;52.704;6.536;2023-03-02T06:03:08;1.40;99.90
58339;DHT22;48278;52.704;6.536;2023-03-02T06:05:34;1.30;99.90
58339;DHT22;48278;52.704;6.536;2023-03-02T06:08:01;1.50;99.90
58339;DHT22;48278;52.704;6.536;2023-03-02T06:10:27;1.40;99.90
58339;DHT22;48278;52.704;6.536;2023-03-02T06:12:53;1.40;99.90
58339;DHT22;48278;52.704;6.536;2023-03-02T06:15:18;1.40;99.90
58339;DHT22;48278;52.704;6.536;2023-03-02T06:17:45;1.40;99.90
58339;DHT22;48278;52.704;6.536;2023-03-02T06:20:11;1.50;99.90
58339;DHT22;48278;52.704;6.536;2023-03-02T06:22:39;1.50;99.90
58339;DHT22;48278;52.704;6.536;2023-03-02T06:25:13;1.40;99.90
58339;DHT22;48278;52.704;6.536;2023-03-02T06:27:40;1.40;99.90
58339;DHT22;48278;52.704;6.536;2023-03-02T06:30:09;1.40;99.90
58339;DHT22;48278;52.704;6.536;2023-03-02T06:32:35;1.30;99.90
58339;DHT22;48278;52.704;6.536;2023-03-02T06:35:03;1.40;99.90
58339;DHT22;48278;52.704;6.536;2023-03-02T06:37:30;1.40;99.90
58339;DHT22;48278;52.704;6.536;2023-03-02T06:39:57;1.30;99.90
58339;DHT22;48278;52.704;6.536;2023-03-02T06:42:24;1.30;99.90
58339;DHT22;48278;52.704;6.536;2023-03-02T06:44:50;1.40;99.90
58339;DHT22;48278;52.704;6.536;2023-03-02T06:47:17;1.30;99.90
58339;DHT22;48278;52.704;6.536;2023-03-02T06:49:43;1.40;99.90
58339;DHT22;48278;52.704;6.536;2023-03-02T06:52:09;1.30;99.90
58339;DHT22;48278;52.704;6.536;2023-03-02T06:54:36;1.30;99.90
58339;DHT22;48278;52.704;6.536;2023-03-02T06:57:02;1.40;99.90
58339;DHT22;48278;52.704;6.536;2023-03-02T06:59:27;1.40;99.90
58339;DHT22;48278;52.704;6.536;2023-03-02T07:01:53;1.50;99.90
58339;DHT22;48278;52.704;6.536;2023-03-02T07:04:19;1.40;99.90
58339;DHT22;48278;52.704;6.536;2023-03-02T07:06:45;1.50;99.90
58339;DHT22;48278;52.704;6.536;2023-03-02T07:09:10;1.50;99.90
58339;DHT22;48278;52.704;6.536;2023-03-02T07:11:36;1.50;99.90
58339;DHT22;48278;52.704;6.536;2023-03-02T07:14:02;1.60;99.90
58339;DHT22;48278;52.704;6.536;2023-03-02T07:16:28;1.50;99.90
58339;DHT22;48278;52.704;6.536;2023-03-02T07:18:54;1.50;99.90
58339;DHT22;48278;52.704;6.536;2023-03-02T07:21:20;1.60;99.90
58339;DHT22;48278;52.704;6.536;2023-03-02T07:23:46;1.70;99.90
58339;DHT22;48278;52.704;6.536;2023-03-02T07:26:12;1.50;99.90
58339;DHT22;48278;52.704;6.536;2023-03-02T07:28:40;1.50;99.90
58339;DHT22;48278;52.704;6.536;2023-03-02T07:31:08;1.60;99.90
58339;DHT22;48278;52.704;6.536;2023-03-02T07:33:35;1.60;99.90
58339;DHT22;48278;52.704;6.536;2023-03-02T07:36:01;1.60;99.90
58339;DHT22;48278;52.704;6.536;2023-03-02T07:38:27;1.60;99.90
58339;DHT22;48278;52.704;6.536;2023-03-02T07:40:53;1.60;99.90
58339;DHT22;48278;52.704;6.536;2023-03-02T07:43:20;1.60;99.90
58339;DHT22;48278;52.704;6.536;2023-03-02T07:45:46;1.60;99.90
58339;DHT22;48278;52.704;6.536;2023-03-02T07:48:11;1.60;99.90
58339;DHT22;48278;52.704;6.536;2023-03-02T07:50:37;1.60;99.90
58339;DHT22;48278;52.704;6.536;2023-03-02T07:53:03;1.60;99.90
58339;DHT22;48278;52.704;6.536;2023-03-02T07:55:28;1.50;99.90
58339;DHT22;48278;52.704;6.536;2023-03-02T07:57:54;1.50;99.90
58339;DHT22;48278;52.704;6.536;2023-03-02T08:00:20;1.40;99.90
58339;DHT22;48278;52.704;6.536;2023-03-02T08:02:46;1.50;99.90
58339;DHT22;48278;52.704;6.536;2023-03-02T08:05:12;1.60;99.90
58339;DHT22;48278;52.704;6.536;2023-03-02T08:07:39;1.60;99.90
58339;DHT22;48278;52.704;6.536;2023-03-02T08:10:05;1.60;99.90
58339;DHT22;48278;52.704;6.536;2023-03-02T08:12:31;1.60;99.90
58339;DHT22;48278;52.704;6.536;2023-03-02T08:14:57;1.50;99.90
58339;DHT22;48278;52.704;6.536;2023-03-02T08:17:23;1.70;99.90
58339;DHT22;48278;52.704;6.536;2023-03-02T08:19:49;1.60;99.90
58339;DHT22;48278;52.704;6.536;2023-03-02T08:22:14;1.60;99.90
58339;DHT22;48278;52.704;6.536;2023-03-02T08:24:40;1.60;99.90
58339;DHT22;48278;52.704;6.536;2023-03-02T08:27:12;1.70;99.90
58339;DHT22;48278;52.704;6.536;2023-03-02T08:29:38;1.70;99.90
58339;DHT22;48278;52.704;6.536;2023-03-02T08:32:04;1.80;99.90
58339;DHT22;48278;52.704;6.536;2023-03-02T08:34:30;1.90;99.90
58339;DHT22;48278;52.704;6.536;2023-03-02T08:36:56;2.00;99.90
58339;DHT22;48278;52.704;6.536;2023-03-02T08:39:22;1.90;99.90
58339;DHT22;48278;52.704;6.536;2023-03-02T08:41:53;1.90;99.90
58339;DHT22;48278;52.704;6.536;2023-03-02T08:44:19;2.10;99.90
58339;DHT22;48278;52.704;6.536;2023-03-02T08:46:47;1.90;99.90
58339;DHT22;48278;52.704;6.536;2023-03-02T08:49:14;1.90;99.90
58339;DHT22;48278;52.704;6.536;2023-03-02T08:51:40;2.00;99.90
58339;DHT22;48278;52.704;6.536;2023-03-02T08:54:06;2.00;99.90
58339;DHT22;48278;52.704;6.536;2023-03-02T08:56:35;1.90;99.90
58339;DHT22;48278;52.704;6.536;2023-03-02T08:59:04;2.10;99.90
58339;DHT22;48278;52.704;6.536;2023-03-02T09:01:33;2.20;99.90
58339;DHT22;48278;52.704;6.536;2023-03-02T09:04:00;2.30;99.90
58339;DHT22;48278;52.704;6.536;2023-03-02T09:06:27;2.50;99.90
58339;DHT22;48278;52.704;6.536;2023-03-02T09:08:54;2.50;99.90
58339;DHT22;48278;52.704;6.536;2023-03-02T09:11:20;2.60;99.90
58339;DHT22;48278;52.704;6.536;2023-03-02T09:13:46;2.70;99.90
58339;DHT22;48278;52.704;6.536;2023-03-02T09:16:12;2.70;99.90
58339;DHT22;48278;52.704;6.536;2023-03-02T09:18:39;2.60;99.90
58339;DHT22;48278;52.704;6.536;2023-03-02T09:21:05;2.40;99.90
58339;DHT22;48278;52.704;6.536;2023-03-02T09:23:31;2.50;99.90
58339;DHT22;48278;52.704;6.536;2023-03-02T09:25:57;2.60;99.90
58339;DHT22;48278;52.704;6.536;2023-03-02T09:28:23;2.60;99.90
58339;DHT22;48278;52.704;6.536;2023-03-02T09:31:00;2.70;99.90
58339;DHT22;48278;52.704;6.536;2023-03-02T09:33:29;2.90;99.90
58339;DHT22;48278;52.704;6.536;2023-03-02T09:35:55;3.00;99.90
58339;DHT22;48278;52.704;6.536;2023-03-02T09:38:21;3.10;99.90
58339;DHT22;48278;52.704;6.536;2023-03-02T09:40:56;3.10;99.90
58339;DHT22;48278;52.704;6.536;2023-03-02T09:46:25;3.20;99.90
58339;DHT22;48278;52.704;6.536;2023-03-02T09:49:19;3.30;99.90
58339;DHT22;48278;52.704;6.536;2023-03-02T09:54:36;3.40;99.90
58339;DHT22;48278;52.704;6.536;2023-03-02T09:57:05;3.40;99.90
58339;DHT22;48278;52.704;6.536;2023-03-02T09:59:42;3.50;99.90
58339;DHT22;48278;52.704;6.536;2023-03-02T10:02:22;3.40;99.90
58339;DHT22;48278;52.704;6.536;2023-03-02T10:04:51;3.30;99.90
58339;DHT22;48278;52.704;6.536;2023-03-02T10:07:29;3.40;99.90
58339;DHT22;48278;52.704;6.536;2023-03-02T10:12:54;3.70;99.90
58339;DHT22;48278;52.704;6.536;2023-03-02T10:15:29;3.90;99.90
58339;DHT22;48278;52.704;6.536;2023-03-02T10:23:30;4.10;99.90
58339;DHT22;48278;52.704;6.536;2023-03-02T10:26:20;4.00;99.90
58339;DHT22;48278;52.704;6.536;2023-03-02T10:29:03;4.00;99.90
58339;DHT22;48278;52.704;6.536;2023-03-02T10:31:32;4.00;99.90
58339;DHT22;48278;52.704;6.536;2023-03-02T10:33:59;4.10;99.90
58339;DHT22;48278;52.704;6.536;2023-03-02T10:36:28;4.10;99.90
58339;DHT22;48278;52.704;6.536;2023-03-02T10:38:55;4.20;99.90
58339;DHT22;48278;52.704;6.536;2023-03-02T10:41:27;4.20;99.90
58339;DHT22;48278;52.704;6.536;2023-03-02T10:43:59;4.20;99.90
58339;DHT22;48278;52.704;6.536;2023-03-02T10:46:26;4.20;99.90
58339;DHT22;48278;52.704;6.536;2023-03-02T10:49:03;4.30;99.90
58339;DHT22;48278;52.704;6.536;2023-03-02T10:51:31;4.50;99.90
58339;DHT22;48278;52.704;6.536;2023-03-02T10:54:12;4.80;99.90
58339;DHT22;48278;52.704;6.536;2023-03-02T10:56:41;5.00;99.90
58339;DHT22;48278;52.704;6.536;2023-03-02T11:04:41;5.00;99.90
58339;DHT22;48278;52.704;6.536;2023-03-02T11:07:14;5.10;99.90
58339;DHT22;48278;52.704;6.536;2023-03-02T11:09:42;5.40;99.90
58339;DHT22;48278;52.704;6.536;2023-03-02T11:12:15;5.70;99.90
58339;DHT22;48278;52.704;6.536;2023-03-02T11:14:41;5.80;99.90
58339;DHT22;48278;52.704;6.536;2023-03-02T11:17:32;5.80;99.90
58339;DHT22;48278;52.704;6.536;2023-03-02T11:20:00;5.50;99.90
58339;DHT22;48278;52.704;6.536;2023-03-02T11:22:35;5.40;99.90
58339;DHT22;48278;52.704;6.536;2023-03-02T11:25:07;5.50;99.90
58339;DHT22;48278;52.704;6.536;2023-03-02T11:27:39;5.60;99.90
58339;DHT22;48278;52.704;6.536;2023-03-02T11:30:10;5.80;99.90
58339;DHT22;48278;52.704;6.536;2023-03-02T11:32:53;6.00;99.90
58339;DHT22;48278;52.704;6.536;2023-03-02T11:35:43;5.50;99.90
58339;DHT22;48278;52.704;6.536;2023-03-02T11:38:27;5.90;99.90
58339;DHT22;48278;52.704;6.536;2023-03-02T11:40:59;5.90;99.90
58339;DHT22;48278;52.704;6.536;2023-03-02T11:43:27;5.90;99.90
58339;DHT22;48278;52.704;6.536;2023-03-02T11:46:02;6.00;99.90
58339;DHT22;48278;52.704;6.536;2023-03-02T11:48:43;5.80;99.90
58339;DHT22;48278;52.704;6.536;2023-03-02T11:51:35;5.80;99.90
58339;DHT22;48278;52.704;6.536;2023-03-02T11:54:24;5.70;99.90
58339;DHT22;48278;52.704;6.536;2023-03-02T11:56:54;5.70;99.90
58339;DHT22;48278;52.704;6.536;2023-03-02T11:59:21;5.30;99.90
58339;DHT22;48278;52.704;6.536;2023-03-02T12:01:50;5.40;99.90
58339;DHT22;48278;52.704;6.536;2023-03-02T12:04:29;5.60;99.90
58339;DHT22;48278;52.704;6.536;2023-03-02T12:06:57;5.70;99.90
58339;DHT22;48278;52.704;6.536;2023-03-02T12:09:25;5.80;99.90
58339;DHT22;48278;52.704;6.536;2023-03-02T12:12:29;5.80;99.90
58339;DHT22;48278;52.704;6.536;2023-03-02T12:14:57;5.90;99.90
58339;DHT22;48278;52.704;6.536;2023-03-02T12:20:08;5.80;99.90
58339;DHT22;48278;52.704;6.536;2023-03-02T12:22:35;5.80;99.90
58339;DHT22;48278;52.704;6.536;2023-03-02T12:25:06;5.40;99.90
58339;DHT22;48278;52.704;6.536;2023-03-02T12:27:51;5.60;99.90
58339;DHT22;48278;52.704;6.536;2023-03-02T12:33:20;5.70;99.90
58339;DHT22;48278;52.704;6.536;2023-03-02T12:35:48;5.40;99.90
58339;DHT22;48278;52.704;6.536;2023-03-02T12:38:30;5.20;99.90
58339;DHT22;48278;52.704;6.536;2023-03-02T12:43:46;5.20;99.90
58339;DHT22;48278;52.704;6.536;2023-03-02T12:49:06;5.20;99.90
58339;DHT22;48278;52.704;6.536;2023-03-02T12:51:48;5.30;99.90
58339;DHT22;48278;52.704;6.536;2023-03-02T12:54:17;5.40;99.90
58339;DHT22;48278;52.704;6.536;2023-03-02T12:56:43;5.30;99.90
58339;DHT22;48278;52.704;6.536;2023-03-02T12:59:22;5.50;99.90
58339;DHT22;48278;52.704;6.536;2023-03-02T13:01:48;5.50;99.90
58339;DHT22;48278;52.704;6.536;2023-03-02T13:04:24;5.40;99.90
58339;DHT22;48278;52.704;6.536;2023-03-02T13:06:52;5.40;99.90
58339;DHT22;48278;52.704;6.536;2023-03-02T13:09:18;5.50;99.90
58339;DHT22;48278;52.704;6.536;2023-03-02T13:11:45;5.50;99.90
58339;DHT22;48278;52.704;6.536;2023-03-02T13:14:25;5.50;99.90
58339;DHT22;48278;52.704;6.536;2023-03-02T13:16:59;5.80;99.90
58339;DHT22;48278;52.704;6.536;2023-03-02T13:19:28;5.40;99.90
58339;DHT22;48278;52.704;6.536;2023-03-02T13:21:58;5.50;99.90
58339;DHT22;48278;52.704;6.536;2023-03-02T13:24:45;5.40;99.90
58339;DHT22;48278;52.704;6.536;2023-03-02T13:27:17;5.30;99.90
58339;DHT22;48278;52.704;6.536;2023-03-02T13:29:44;5.60;99.90
58339;DHT22;48278;52.704;6.536;2023-03-02T13:32:40;5.80;99.90
58339;DHT22;48278;52.704;6.536;2023-03-02T13:35:20;5.80;99.90
58339;DHT22;48278;52.704;6.536;2023-03-02T13:37:59;5.90;99.90
58339;DHT22;48278;52.704;6.536;2023-03-02T13:40:29;5.90;99.90
58339;DHT22;48278;52.704;6.536;2023-03-02T13:42:57;6.00;99.90
58339;DHT22;48278;52.704;6.536;2023-03-02T13:45:25;6.20;99.90
58339;DHT22;48278;52.704;6.536;2023-03-02T13:47:53;6.20;99.90
58339;DHT22;48278;52.704;6.536;2023-03-02T13:50:30;6.20;99.90
58339;DHT22;48278;52.704;6.536;2023-03-02T13:53:00;6.10;99.90
58339;DHT22;48278;52.704;6.536;2023-03-02T13:55:27;5.80;99.90
58339;DHT22;48278;52.704;6.536;2023-03-02T13:57:53;5.80;99.90
58339;DHT22;48278;52.704;6.536;2023-03-02T14:00:22;5.90;99.90
58339;DHT22;48278;52.704;6.536;2023-03-02T14:02:49;5.80;99.90
58339;DHT22;48278;52.704;6.536;2023-03-02T14:05:17;5.70;99.90
58339;DHT22;48278;52.704;6.536;2023-03-02T14:07:44;5.70;99.90
58339;DHT22;48278;52.704;6.536;2023-03-02T14:10:14;5.20;99.90
58339;DHT22;48278;52.704;6.536;2023-03-02T14:12:46;5.10;99.90
58339;DHT22;48278;52.704;6.536;2023-03-02T14:15:16;5.20;99.90
58339;DHT22;48278;52.704;6.536;2023-03-02T14:17:42;5.20;99.90
58339;DHT22;48278;52.704;6.536;2023-03-02T14:20:13;5.10;99.90
58339;DHT22;48278;52.704;6.536;2023-03-02T14:22:39;5.20;99.90
58339;DHT22;48278;52.704;6.536;2023-03-02T14:25:06;5.00;99.90
58339;DHT22;48278;52.704;6.536;2023-03-02T14:27:32;5.40;99.90
58339;DHT22;48278;52.704;6.536;2023-03-02T14:29:58;5.00;99.90
58339;DHT22;48278;52.704;6.536;2023-03-02T14:32:24;5.00;99.90
58339;DHT22;48278;52.704;6.536;2023-03-02T14:34:50;5.10;99.90
58339;DHT22;48278;52.704;6.536;2023-03-02T14:37:17;5.10;99.90
58339;DHT22;48278;52.704;6.536;2023-03-02T14:39:51;5.00;99.90
58339;DHT22;48278;52.704;6.536;2023-03-02T14:42:18;4.90;99.90
58339;DHT22;48278;52.704;6.536;2023-03-02T14:44:47;5.00;99.90
58339;DHT22;48278;52.704;6.536;2023-03-02T14:47:14;4.90;99.90
58339;DHT22;48278;52.704;6.536;2023-03-02T14:49:42;5.00;99.90
58339;DHT22;48278;52.704;6.536;2023-03-02T14:52:30;5.20;99.90
58339;DHT22;48278;52.704;6.536;2023-03-02T14:54:59;5.20;99.90
58339;DHT22;48278;52.704;6.536;2023-03-02T14:57:28;4.80;99.90
58339;DHT22;48278;52.704;6.536;2023-03-02T14:59:55;4.80;99.90
58339;DHT22;48278;52.704;6.536;2023-03-02T15:02:22;4.80;99.90
58339;DHT22;48278;52.704;6.536;2023-03-02T15:04:48;4.80;99.90
58339;DHT22;48278;52.704;6.536;2023-03-02T15:07:17;4.90;99.90
58339;DHT22;48278;52.704;6.536;2023-03-02T15:09:44;5.00;99.90
58339;DHT22;48278;52.704;6.536;2023-03-02T15:12:10;4.90;99.90
58339;DHT22;48278;52.704;6.536;2023-03-02T15:14:39;4.90;99.90
58339;DHT22;48278;52.704;6.536;2023-03-02T15:17:05;4.90;99.90
58339;DHT22;48278;52.704;6.536;2023-03-02T15:19:31;5.00;99.90
58339;DHT22;48278;52.704;6.536;2023-03-02T15:21:57;4.90;99.90
58339;DHT22;48278;52.704;6.536;2023-03-02T15:24:22;4.90;99.90
58339;DHT22;48278;52.704;6.536;2023-03-02T15:26:49;5.00;99.90
58339;DHT22;48278;52.704;6.536;2023-03-02T15:29:16;5.00;99.90
58339;DHT22;48278;52.704;6.536;2023-03-02T15:31:42;5.00;99.90
58339;DHT22;48278;52.704;6.536;2023-03-02T15:34:07;5.00;99.90
58339;DHT22;48278;52.704;6.536;2023-03-02T15:36:34;5.20;99.90
58339;DHT22;48278;52.704;6.536;2023-03-02T15:38:59;5.20;99.90
58339;DHT22;48278;52.704;6.536;2023-03-02T15:41:25;5.20;99.90
58339;DHT22;48278;52.704;6.536;2023-03-02T15:43:52;5.20;99.90
58339;DHT22;48278;52.704;6.536;2023-03-02T15:46:19;5.30;99.90
58339;DHT22;48278;52.704;6.536;2023-03-02T15:48:45;5.20;99.90
58339;DHT22;48278;52.704;6.536;2023-03-02T15:51:11;5.30;99.90
58339;DHT22;48278;52.704;6.536;2023-03-02T15:53:38;5.30;99.90
58339;DHT22;48278;52.704;6.536;2023-03-02T15:56:04;5.40;99.90
58339;DHT22;48278;52.704;6.536;2023-03-02T15:58:31;5.40;99.90
58339;DHT22;48278;52.704;6.536;2023-03-02T16:00:58;5.30;99.90
58339;DHT22;48278;52.704;6.536;2023-03-02T16:03:24;5.30;99.90
58339;DHT22;48278;52.704;6.536;2023-03-02T16:05:50;5.30;99.90
58339;DHT22;48278;52.704;6.536;2023-03-02T16:08:16;5.30;99.90
58339;DHT22;48278;52.704;6.536;2023-03-02T16:10:42;5.20;99.90
58339;DHT22;48278;52.704;6.536;2023-03-02T16:13:08;5.20;99.90
58339;DHT22;48278;52.704;6.536;2023-03-02T16:15:38;5.20;99.90
58339;DHT22;48278;52.704;6.536;2023-03-02T16:18:09;5.20;99.90
58339;DHT22;48278;52.704;6.536;2023-03-02T16:20:36;5.20;99.90
58339;DHT22;48278;52.704;6.536;2023-03-02T16:23:03;5.20;99.90
58339;DHT22;48278;52.704;6.536;2023-03-02T16:25:41;5.20;99.90
58339;DHT22;48278;52.704;6.536;2023-03-02T16:28:10;5.20;99.90
58339;DHT22;48278;52.704;6.536;2023-03-02T16:30:36;5.10;99.90
58339;DHT22;48278;52.704;6.536;2023-03-02T16:33:04;5.10;99.90